Time;durP1;ratioP1;P1;durP2;ratioP2;P2;SDS_P1;SDS_P2;PMS_P1;PMS_P2;Temp;Humidity;BMP_temperature;BMP_pressure;BME280_temperature;BME280_humidity;BME280_pressure;Samples;Min_cycle;Max_cycle;Signal;HPM_P1;HPM_P2
2024/01/19 08:04:04;;;;;;;11.50;6.45;;;;;;;14.55;51.55;96648.38;10317250;28;20459;-57
2024/01/19 08:09:03;;;;;;;8.30;5.68;;;;;;;15.05;50.09;96674.47;10321009;28;20068;-57
2024/01/19 08:14:02;;;;;;;;;;;;;;;15.31;47.85;96660.44;10305151;28;20036;-57
2024/01/19 08:19:02;;;;;;;6.30;5.60;;;;;;;15.46;47.61;96623.28;10307283;28;19917;-57
2024/01/19 08:24:01;;;;;;;9.45;7.13;;;;;;;15.82;45.20;96664.63;10307176;28;20102;-57
2024/01/19 08:29:00;;;;;;;;;;;;;;;16.16;45.65;96672.88;10309827;28;20037;-57
2024/01/19 08:33:59;;;;;;;7.07;6.15;;;;;;;16.25;44.55;96681.22;10312605;28;20003;-57
2024/01/19 08:38:58;;;;;;;;;;;;;;;16.36;43.47;96675.53;10333144;28;20028;-57
2024/01/19 08:43:57;;;;;;;5.88;4.60;;;;;;;16.48;43.59;96674.19;10313337;28;20036;-57
2024/01/19 08:48:56;;;;;;;;;;;;;;;16.75;42.02;96676.53;10305005;28;20052;-57
2024/01/19 08:53:55;;;;;;;7.00;5.18;;;;;;;16.95;41.34;96700.16;10316376;28;19913;-57
2024/01/19 08:58:54;;;;;;;;;;;;;;;17.16;41.69;96677.38;10332996;28;20039;-57
2024/01/19 09:03:53;;;;;;;12.07;6.83;;;;;;;17.55;40.98;96679.13;10333037;28;19948;-57
2024/01/19 09:08:52;;;;;;;;;;;;;;;17.17;41.08;96662.50;10339797;28;20115;-57
2024/01/19 09:13:50;;;;;;;9.23;6.27;;;;;;;16.89;41.13;96674.22;10324645;28;20399;-57
2024/01/19 09:18:49;;;;;;;;;;;;;;;17.10;41.35;96667.19;10326487;28;20116;-57
2024/01/19 09:23:48;;;;;;;12.70;5.93;;;;;;;17.18;42.07;96654.56;10344872;28;19917;-57
2024/01/19 09:28:47;;;;;;;;;;;;;;;17.26;40.68;96668.22;10337132;28;20036;-57
2024/01/19 09:33:46;;;;;;;14.40;7.20;;;;;;;17.33;41.31;96651.28;10327579;28;20350;-57
2024/01/19 09:38:45;;;;;;;;;;;;;;;17.50;40.68;96660.13;10302006;28;20033;-57
2024/01/19 09:43:45;;;;;;;11.20;9.03;;;;;;;17.55;39.55;96658.16;10332182;28;19927;-57
2024/01/19 09:49:11;;;;;;;7.43;5.70;;;;;;;17.69;40.14;96639.97;10311495;28;20128;-57
2024/01/19 09:54:20;;;;;;;16.08;12.05;;;;;;;17.62;39.82;96650.84;10318523;28;20056;-57
2024/01/19 09:59:20;;;;;;;15.00;8.40;;;;;;;17.74;39.86;96629.28;10319052;28;20120;-57
2024/01/19 10:04:20;;;;;;;18.50;12.35;;;;;;;17.77;39.98;96623.91;10301350;28;20136;-58
2024/01/19 10:09:20;;;;;;;10.77;7.25;;;;;;;17.76;39.82;96623.06;10296933;28;20080;-57
2024/01/19 10:14:20;;;;;;;17.85;11.73;;;;;;;17.54;40.04;96630.19;10272005;28;20133;-58
2024/01/19 10:19:22;;;;;;;6.72;5.85;;;;;;;17.48;39.73;96599.88;10266897;28;20124;-57
2024/01/19 10:24:21;;;;;;;10.60;6.95;;;;;;;17.84;38.74;96604.31;10279070;28;20462;-57
2024/01/19 10:29:20;;;;;;;6.75;5.47;;;;;;;18.21;38.78;96605.13;10256689;28;20430;-57
2024/01/19 10:34:24;;;;;;;7.57;5.50;;;;;;;18.61;38.71;96618.88;10266857;28;20144;-57
2024/01/19 10:39:24;;;;;;;5.20;4.68;;;;;;;18.53;36.76;96587.75;10265279;28;20137;-57
2024/01/19 10:44:23;;;;;;;6.68;5.72;;;;;;;18.65;38.35;96591.50;10266705;28;20128;-57
2024/01/19 10:49:22;;;;;;;6.32;5.20;;;;;;;18.77;37.63;96592.69;10266393;28;20161;-57
2024/01/19 10:54:26;;;;;;;5.63;5.22;;;;;;;18.52;36.35;96614.94;10264334;28;20144;-57
2024/01/19 10:59:25;;;;;;;6.38;5.93;;;;;;;18.87;36.87;96546.56;10268141;28;20124;-57
2024/01/19 11:04:25;;;;;;;5.65;5.15;;;;;;;19.10;36.51;96570.78;10265391;28;20129;-58
2024/01/19 11:09:25;;;;;;;7.18;5.90;;;;;;;18.98;36.77;96519.72;10288275;28;20140;-57
2024/01/19 11:14:26;;;;;;;6.35;5.50;;;;;;;19.07;37.11;96578.84;10286424;28;20510;-57
2024/01/19 11:19:25;;;;;;;5.95;5.35;;;;;;;18.69;36.20;96480.09;10278844;28;20113;-57
2024/01/19 11:24:29;;;;;;;7.22;5.65;;;;;;;19.40;36.20;96577.00;10289900;28;20076;-56
2024/01/19 11:29:40;;;;;;;6.10;5.53;;;;;;;19.14;36.78;96553.91;10282136;28;20242;-57
2024/01/19 11:34:55;;;;;;;7.38;6.50;;;;;;;18.97;37.03;96507.50;10298827;28;20057;-57
2024/01/19 11:39:54;;;;;;;6.95;6.22;;;;;;;19.18;36.41;96571.22;10310374;28;20053;-58
2024/01/19 11:44:53;;;;;;;9.60;6.18;;;;;;;19.16;37.03;96528.38;10300829;28;20061;-58
2024/01/19 11:49:52;;;;;;;7.15;5.65;;;;;;;19.28;36.42;96527.69;10301765;28;20121;-58
2024/01/19 11:54:51;;;;;;;9.63;7.15;;;;;;;19.32;36.42;96523.97;10283564;28;20122;-57
2024/01/19 11:59:50;;;;;;;5.57;4.78;;;;;;;19.42;36.22;96572.50;10289488;28;20032;-57
2024/01/19 12:04:52;;;;;;;7.90;5.43;;;;;;;19.21;36.82;96534.25;10311461;28;20087;-58
2024/01/19 12:10:20;;;;;;;7.20;4.60;;;;;;;19.04;36.05;96582.47;10333871;28;20072;-58
2024/01/19 12:15:19;;;;;;;27.27;18.33;;;;;;;18.71;36.36;96562.31;10313247;28;20112;-58
2024/01/19 12:20:18;;;;;;;9.38;6.32;;;;;;;19.02;37.26;96600.13;10313419;28;20094;-57
2024/01/19 12:25:19;;;;;;;9.50;5.65;;;;;;;18.85;36.35;96601.00;10313601;28;20888;-57
2024/01/19 12:30:19;;;;;;;6.28;5.68;;;;;;;18.58;36.48;96585.72;10308302;28;20175;-58
2024/01/19 12:35:21;;;;;;;7.93;5.90;;;;;;;18.37;37.43;96573.69;10314091;28;20221;-58
2024/01/19 12:40:21;;;;;;;8.70;6.20;;;;;;;18.33;38.05;96582.66;10312928;28;20808;-57
2024/01/19 12:45:21;;;;;;;16.40;8.13;;;;;;;18.33;38.26;96603.66;10342555;28;20049;-58
2024/01/19 12:50:20;;;;;;;6.13;5.18;;;;;;;17.98;38.48;96559.00;10308624;28;20133;-57
2024/01/19 12:55:32;;;;;;;6.97;5.78;;;;;;;17.98;38.26;96557.22;10313618;28;20084;-57
2024/01/19 13:00:31;;;;;;;6.80;5.70;;;;;;;17.88;38.78;96565.66;10304961;28;20124;-57
2024/01/19 13:05:31;;;;;;;7.35;6.53;;;;;;;18.06;38.79;96604.13;10369662;28;20059;-58
2024/01/19 13:10:30;;;;;;;7.70;5.32;;;;;;;18.03;39.06;96612.13;10305744;28;20762;-57
2024/01/19 13:15:30;;;;;;;12.02;6.60;;;;;;;17.97;39.18;96630.81;10290487;28;20817;-58
2024/01/19 13:20:29;;;;;;;8.20;5.95;;;;;;;17.90;39.83;96647.78;10290593;28;20058;-57
2024/01/19 13:25:28;;;;;;;6.47;5.88;;;;;;;17.21;39.81;96561.81;10330704;28;20071;-58
2024/01/19 13:30:28;;;;;;;7.05;5.40;;;;;;;17.52;40.30;96645.19;10329631;28;20026;-58
2024/01/19 13:35:28;;;;;;;5.40;4.90;;;;;;;17.40;40.20;96612.47;10311573;28;20061;-56
2024/01/19 13:40:29;;;;;;;7.03;5.20;;;;;;;17.45;40.44;96636.75;10331062;28;20060;-56
2024/01/19 13:45:28;;;;;;;7.03;6.28;;;;;;;17.50;40.51;96681.13;10330942;28;20066;-57
2024/01/19 13:50:27;;;;;;;6.40;5.53;;;;;;;17.29;40.91;96657.56;10330774;28;20061;-58
2024/01/19 13:55:26;;;;;;;6.15;5.65;;;;;;;17.03;41.29;96592.38;10311774;28;20103;-58
2024/01/19 14:00:25;;;;;;;7.95;5.25;;;;;;;17.37;41.77;96656.38;10330620;28;20108;-57
2024/01/19 14:05:24;;;;;;;5.95;5.20;;;;;;;16.99;41.86;96614.41;10330358;28;20051;-58
2024/01/19 14:10:23;;;;;;;;;;;;;;;17.15;41.83;96662.59;10330601;28;20541;-56
2024/01/19 14:15:22;;;;;;;9.07;6.60;;;;;;;17.01;41.22;96657.13;10328263;28;19908;-58
2024/01/19 14:20:21;;;;;;;7.60;6.05;;;;;;;16.76;41.54;96686.97;10329202;28;20898;-57
2024/01/19 14:25:20;;;;;;;7.32;5.90;;;;;;;16.59;41.88;96671.97;10329925;28;20864;-57
2024/01/19 14:30:19;;;;;;;6.18;5.22;;;;;;;16.51;41.86;96667.06;10329472;28;20053;-61
2024/01/19 14:35:18;;;;;;;;;;;;;;;16.37;41.90;96666.78;10329497;28;20030;-56
2024/01/19 14:40:16;;;;;;;9.97;5.67;;;;;;;16.15;42.25;96665.97;10328401;28;20013;-57
2024/01/19 14:45:15;;;;;;;;;;;;;;;16.23;42.26;96696.16;10326746;28;20040;-56
2024/01/19 14:50:14;;;;;;;8.75;5.00;;;;;;;15.32;42.50;96575.91;10327506;28;20337;-57
2024/01/19 14:55:14;;;;;;;;;;;;;;;16.20;42.90;96763.47;10327806;28;20033;-56
2024/01/19 15:00:14;;;;;;;6.55;5.78;;;;;;;15.85;45.63;96726.44;10308237;28;19975;-57
2024/01/19 15:05:12;;;;;;;7.78;5.10;;;;;;;16.05;46.65;96781.47;10327536;28;20458;-57
2024/01/19 15:10:13;;;;;;;;;;;;;;;15.98;46.97;96789.63;10327930;28;20418;-58
2024/01/19 15:15:12;;;;;;;7.30;5.70;;;;;;;15.77;47.02;96786.03;10325690;28;19967;-56
2024/01/19 15:20:13;;;;;;;;;;;;;;;15.70;47.82;96771.47;10326520;28;20025;-57
2024/01/19 15:25:11;;;;;;;9.88;6.53;;;;;;;15.15;48.47;96678.44;10325884;28;20361;-57
2024/01/19 15:30:10;;;;;;;;;;;;;;;15.45;49.56;96756.66;10327002;28;20395;-57
2024/01/19 15:35:09;;;;;;;10.88;7.63;;;;;;;15.21;50.62;96761.03;10326029;28;19935;-57
2024/01/19 15:40:09;;;;;;;9.68;8.38;;;;;;;14.88;52.00;96734.31;10326610;28;20108;-58
2024/01/19 15:45:08;;;;;;;11.63;9.15;;;;;;;15.08;51.79;96765.81;10326331;28;20065;-57
2024/01/19 15:50:08;;;;;;;14.60;10.60;;;;;;;15.07;52.16;96773.72;10326248;28;20053;-57
2024/01/19 15:55:08;;;;;;;28.30;20.83;;;;;;;15.04;52.17;96782.53;10326022;28;20061;-57
2024/01/19 16:00:08;;;;;;;39.35;29.67;;;;;;;14.51;52.95;96719.84;10325856;28;20060;-57
2024/01/19 16:05:07;;;;;;;33.22;25.70;;;;;;;14.33;54.15;96735.19;10325646;28;20068;-57
2024/01/19 16:10:06;;;;;;;38.78;28.65;;;;;;;13.44;56.26;96628.44;10325624;28;20114;-57
2024/01/19 16:15:06;;;;;;;38.60;29.13;;;;;;;14.17;55.96;96754.84;10325236;28;20053;-58
2024/01/19 16:20:06;;;;;;;;;;;;;;;14.35;55.92;96806.47;10326269;28;20068;-57
2024/01/19 16:25:06;;;;;;;15.00;10.93;;;;;;;14.38;55.96;96795.97;10305468;28;19964;-58
2024/01/19 16:30:05;;;;;;;18.45;13.65;;;;;;;14.40;55.71;96819.38;10323505;28;20064;-58
2024/01/19 16:35:05;;;;;;;49.15;39.72;;;;;;;13.06;57.86;96626.97;10324886;28;20060;-58
2024/01/19 16:40:04;;;;;;;24.45;16.80;;;;;;;13.79;61.04;96829.91;10305824;28;20069;-57
2024/01/19 16:45:03;;;;;;;21.15;13.82;;;;;;;13.73;63.96;96880.47;10324571;28;20057;-57
2024/01/19 16:50:02;;;;;;;;;;;;;;;13.71;64.85;96876.22;10324900;28;20057;-58
2024/01/19 16:55:01;;;;;;;9.32;7.40;;;;;;;13.59;65.57;96856.56;10324583;28;19909;-57
2024/01/19 17:00:00;;;;;;;25.67;19.88;;;;;;;13.44;65.80;96829.09;10324585;28;20063;-58
2024/01/19 17:04:59;;;;;;;27.08;20.05;;;;;;;13.61;67.33;96874.72;10324281;28;20107;-57
2024/01/19 17:09:58;;;;;;;35.33;24.73;;;;;;;13.09;68.31;96804.00;10323932;28;20069;-57
2024/01/19 17:14:57;;;;;;;28.85;19.35;;;;;;;13.18;68.99;96842.81;10324105;28;20104;-58
2024/01/19 17:19:56;;;;;;;;;;;;;;;13.30;68.84;96867.69;10324375;28;20080;-58
2024/01/19 17:24:55;;;;;;;22.75;15.02;;;;;;;12.94;67.88;96815.66;10305586;28;19991;-57
2024/01/19 17:29:54;;;;;;;25.58;17.75;;;;;;;12.79;70.25;96884.63;10323869;28;20056;-58
2024/01/19 17:34:53;;;;;;;25.42;17.63;;;;;;;12.32;77.76;96909.94;10323475;28;20112;-57
2024/01/19 17:39:52;;;;;;;20.83;14.13;;;;;;;11.83;77.80;96901.41;10323796;28;20100;-58
2024/01/19 17:44:51;;;;;;;24.25;15.73;;;;;;;11.15;76.98;96932.94;10323462;28;20057;-58
2024/01/19 17:49:51;;;;;;;30.00;23.92;;;;;;;11.03;77.37;96936.59;10324052;28;20160;-58
2024/01/19 17:54:50;;;;;;;33.13;27.52;;;;;;;10.84;77.71;96963.66;10331166;28;20039;-57
2024/01/19 17:59:49;;;;;;;29.65;21.95;;;;;;;10.28;79.77;96978.25;10312755;28;20116;-59
2024/01/19 18:04:48;;;;;;;35.10;22.77;;;;;;;9.67;82.02;97016.06;10330401;28;20789;-57
2024/01/19 18:09:47;;;;;;;29.10;22.42;;;;;;;9.50;83.28;97036.94;10326414;28;20107;-57
2024/01/19 18:14:46;;;;;;;30.02;23.50;;;;;;;9.02;83.87;96984.63;10328673;28;20029;-57
2024/01/19 18:19:45;;;;;;;34.38;23.85;;;;;;;9.04;84.96;96983.75;10325288;28;20061;-56
2024/01/19 18:24:46;;;;;;;33.75;22.55;;;;;;;9.42;85.77;97041.31;10325228;28;20029;-57
2024/01/19 18:29:44;;;;;;;33.55;23.73;;;;;;;9.16;86.07;96988.00;10325741;28;20061;-57
2024/01/19 18:34:43;;;;;;;33.90;24.02;;;;;;;9.37;86.40;97020.63;10325097;28;20108;-56
2024/01/19 18:39:43;;;;;;;42.15;28.95;;;;;;;9.03;86.63;96965.66;10325367;28;20113;-57
2024/01/19 18:44:41;;;;;;;;;;;;;;;9.26;87.37;97046.59;10325735;28;20299;-57
2024/01/19 18:49:40;;;;;;;37.53;25.58;;;;;;;9.00;87.34;97007.09;10324998;28;19913;-57
2024/01/19 18:54:40;;;;;;;26.48;18.08;;;;;;;7.84;89.02;96968.84;10323912;28;20127;-57
2024/01/19 18:59:39;;;;;;;21.77;15.23;;;;;;;7.99;88.17;97085.91;10328124;28;20057;-57
2024/01/19 19:04:38;;;;;;;20.85;14.32;;;;;;;7.26;87.88;97105.69;10309118;28;20099;-57
2024/01/19 19:09:37;;;;;;;22.67;15.25;;;;;;;6.85;88.06;97123.66;10328033;28;20075;-57
2024/01/19 19:14:35;;;;;;;19.67;13.40;;;;;;;6.22;87.54;97088.16;10327725;28;20120;-57
2024/01/19 19:19:34;;;;;;;16.23;11.27;;;;;;;6.35;86.11;97136.31;10327965;28;20112;-57
2024/01/19 19:24:34;;;;;;;18.67;12.38;;;;;;;6.33;86.69;97179.25;10327455;28;20112;-58
2024/01/19 19:29:33;;;;;;;;;;;;;;;6.25;86.53;97180.91;10327482;28;20060;-57
2024/01/19 19:34:33;;;;;;;17.55;11.35;;;;;;;5.93;85.96;97163.53;10324772;28;19939;-58
2024/01/19 19:39:34;;;;;;;15.38;9.93;;;;;;;5.69;86.23;97176.19;10326594;28;20064;-57
2024/01/19 19:44:36;;;;;;;16.25;10.07;;;;;;;5.78;86.91;97225.19;10326422;28;20060;-58
2024/01/19 19:49:36;;;;;;;17.52;9.93;;;;;;;5.42;85.69;97169.94;10325904;28;20061;-57
2024/01/19 19:54:36;;;;;;;16.65;11.88;;;;;;;5.51;85.75;97180.31;10324525;28;20065;-57
2024/01/19 19:59:38;;;;;;;14.77;9.48;;;;;;;5.80;84.13;97261.25;10324176;28;20456;-58
2024/01/19 20:04:37;;;;;;;12.57;9.15;;;;;;;5.54;83.93;97288.44;10325198;28;20463;-58
2024/01/19 20:09:36;;;;;;;15.20;10.13;;;;;;;5.61;83.16;97286.78;10278221;28;20125;-57
2024/01/19 20:14:34;;;;;;;12.88;8.98;;;;;;;5.61;81.91;97329.69;10284913;28;20021;-57
2024/01/19 20:19:33;;;;;;;13.57;9.68;;;;;;;5.32;82.09;97291.59;10285122;28;20113;-57
2024/01/19 20:24:32;;;;;;;15.02;10.40;;;;;;;5.81;81.51;97353.06;10280855;28;20128;-58
2024/01/19 20:29:31;;;;;;;17.38;11.63;;;;;;;5.50;81.78;97290.94;10280362;28;20117;-57
2024/01/19 20:34:30;;;;;;;14.07;10.85;;;;;;;5.39;81.02;97303.72;10279287;28;20038;-58
2024/01/19 20:39:29;;;;;;;13.88;10.60;;;;;;;5.43;80.83;97368.94;10280314;28;20112;-58
2024/01/19 20:44:28;;;;;;;14.95;10.27;;;;;;;5.68;80.16;97368.38;10280402;28;20037;-58
2024/01/19 20:49:27;;;;;;;14.50;10.25;;;;;;;4.93;79.76;97251.66;10280095;28;20120;-58
2024/01/19 20:54:32;;;;;;;14.73;11.00;;;;;;;5.54;79.38;97396.53;10280231;28;20038;-58
2024/01/19 20:59:31;;;;;;;13.40;9.85;;;;;;;5.50;79.22;97379.31;10280101;28;20061;-57
2024/01/19 21:04:30;;;;;;;23.00;15.27;;;;;;;5.41;79.04;97327.72;10279534;28;20088;-58
2024/01/19 21:09:29;;;;;;;20.05;13.45;;;;;;;5.77;77.68;97424.28;10280464;28;20099;-58
2024/01/19 21:14:28;;;;;;;13.15;10.50;;;;;;;4.74;77.55;97285.66;10280197;28;20033;-59
2024/01/19 21:19:27;;;;;;;13.30;10.55;;;;;;;5.64;76.68;97432.69;10279829;28;20137;-58
2024/01/19 21:24:26;;;;;;;12.52;9.55;;;;;;;5.84;76.17;97446.69;10281269;28;20537;-58
2024/01/19 21:29:25;;;;;;;17.55;11.00;;;;;;;5.97;77.42;97470.88;10287412;28;20759;-58
2024/01/19 21:34:23;;;;;;;16.38;10.63;;;;;;;4.97;77.35;97302.31;10287129;28;20032;-57
2024/01/19 21:39:22;;;;;;;18.08;12.98;;;;;;;5.60;77.88;97420.59;10287027;28;20061;-57
2024/01/19 21:44:27;;;;;;;11.55;8.88;;;;;;;5.84;77.21;97495.63;10286756;28;20026;-57
2024/01/19 21:49:26;;;;;;;15.52;9.77;;;;;;;5.65;77.41;97493.59;10286876;28;20069;-58
2024/01/19 21:54:25;;;;;;;13.52;10.02;;;;;;;5.35;76.71;97476.91;10286687;28;20076;-58
2024/01/19 21:59:24;;;;;;;12.10;9.82;;;;;;;5.49;76.44;97485.69;10286444;28;20038;-58
2024/01/19 22:04:23;;;;;;;12.80;9.63;;;;;;;5.46;76.39;97456.44;10286102;28;20099;-57
2024/01/19 22:09:21;;;;;;;10.25;7.97;;;;;;;5.17;74.68;97438.88;10286218;28;20038;-58
2024/01/19 22:14:21;;;;;;;10.25;8.00;;;;;;;5.58;75.12;97491.78;10285932;28;20547;-57
2024/01/19 22:19:21;;;;;;;10.88;7.95;;;;;;;5.58;73.15;97476.34;10285809;28;20061;-57
2024/01/19 22:24:20;;;;;;;17.17;12.30;;;;;;;5.62;74.04;97516.75;10285496;28;20057;-56
2024/01/19 22:29:19;;;;;;;12.60;8.63;;;;;;;5.48;72.65;97576.59;10283330;28;20041;-56
2024/01/19 22:34:18;;;;;;;18.88;13.43;;;;;;;5.35;74.26;97502.63;10285394;28;20041;-57
2024/01/19 22:39:17;;;;;;;12.75;9.10;;;;;;;5.72;72.83;97519.47;10284166;28;20274;-57
2024/01/19 22:44:16;;;;;;;8.85;7.50;;;;;;;5.58;70.44;97549.31;10284819;28;20582;-57
2024/01/19 22:49:14;;;;;;;8.23;5.93;;;;;;;5.65;68.00;97543.41;10267306;28;20046;-60
2024/01/19 22:54:14;;;;;;;10.80;8.63;;;;;;;5.58;68.24;97543.28;10282598;28;20037;-56
2024/01/19 22:59:13;;;;;;;10.73;8.20;;;;;;;5.37;66.08;97515.50;10284109;28;20069;-57
2024/01/19 23:04:12;;;;;;;;;;;;;;;5.54;65.56;97530.38;10284213;28;20078;-57
2024/01/19 23:09:11;;;;;;;9.77;8.15;;;;;;;5.42;65.39;97537.91;10284083;28;19952;-57
2024/01/19 23:14:10;;;;;;;6.60;5.93;;;;;;;4.86;63.63;97481.22;10283721;28;20030;-57
2024/01/19 23:19:11;;;;;;;6.20;5.47;;;;;;;5.19;63.35;97539.25;10283528;28;20072;-57
2024/01/19 23:24:10;;;;;;;6.55;5.88;;;;;;;5.27;63.09;97563.38;10282961;28;20511;-57
2024/01/19 23:29:09;;;;;;;6.78;5.78;;;;;;;5.03;63.33;97535.53;10265275;28;20049;-57
2024/01/19 23:34:10;;;;;;;8.27;7.00;;;;;;;5.37;63.34;97552.41;10280676;28;20030;-57
2024/01/19 23:39:09;;;;;;;9.45;6.90;;;;;;;5.42;62.70;97553.34;10282619;28;20080;-57
2024/01/19 23:44:08;;;;;;;8.05;6.45;;;;;;;5.47;61.71;97564.56;10282316;28;20109;-57
2024/01/19 23:49:07;;;;;;;7.20;6.50;;;;;;;5.38;60.30;97542.97;10281755;28;20045;-56
2024/01/19 23:54:06;;;;;;;6.43;5.70;;;;;;;5.28;58.90;97572.84;10282036;28;20380;-57
2024/01/19 23:59:05;;;;;;;5.00;4.70;;;;;;;5.00;58.38;97586.91;10282323;28;20037;-57
